sensor_id;sensor_type;location;lat;lon;timestamp;pressure;altitude;pressure_sealevel;temperature;humidity
38716;BME280;24833;49.324;8.694;2023-02-12T00:01:21;101859.50;;;6.57;73.87
38716;BME280;24833;49.324;8.694;2023-02-12T00:03:48;101853.44;;;6.55;74.31
38716;BME280;24833;49.324;8.694;2023-02-12T00:06:15;101854.41;;;6.54;74.25
38716;BME280;24833;49.324;8.694;2023-02-12T00:08:42;101855.50;;;6.51;73.99
38716;BME280;24833;49.324;8.694;2023-02-12T00:11:13;101854.66;;;6.51;74.26
38716;BME280;24833;49.324;8.694;2023-02-12T00:13:41;101860.94;;;6.50;73.98
38716;BME280;24833;49.324;8.694;2023-02-12T00:16:14;101860.09;;;6.49;74.12
38716;BME280;24833;49.324;8.694;2023-02-12T00:18:42;101847.75;;;6.48;73.89
38716;BME280;24833;49.324;8.694;2023-02-12T00:21:10;101853.94;;;6.49;74.32
38716;BME280;24833;49.324;8.694;2023-02-12T00:23:39;101856.69;;;6.47;73.98
38716;BME280;24833;49.324;8.694;2023-02-12T00:26:11;101851.50;;;6.46;73.37
38716;BME280;24833;49.324;8.694;2023-02-12T00:28:44;101855.13;;;6.45;74.29
38716;BME280;24833;49.324;8.694;2023-02-12T00:31:19;101859.47;;;6.46;73.89
38716;BME280;24833;49.324;8.694;2023-02-12T00:33:47;101865.75;;;6.45;74.29
38716;BME280;24833;49.324;8.694;2023-02-12T00:36:21;101864.78;;;6.46;74.15
38716;BME280;24833;49.324;8.694;2023-02-12T00:38:52;101857.66;;;6.46;73.93
38716;BME280;24833;49.324;8.694;2023-02-12T00:41:20;101855.84;;;6.47;74.47
38716;BME280;24833;49.324;8.694;2023-02-12T00:43:49;101865.50;;;6.48;74.40
38716;BME280;24833;49.324;8.694;2023-02-12T00:46:16;101865.41;;;6.49;74.05
38716;BME280;24833;49.324;8.694;2023-02-12T00:48:43;101866.25;;;6.50;74.13
38716;BME280;24833;49.324;8.694;2023-02-12T00:51:10;101866.25;;;6.50;74.10
38716;BME280;24833;49.324;8.694;2023-02-12T00:53:37;101871.56;;;6.50;74.12
38716;BME280;24833;49.324;8.694;2023-02-12T00:56:06;101875.03;;;6.50;74.35
38716;BME280;24833;49.324;8.694;2023-02-12T00:58:33;101872.50;;;6.49;74.24
38716;BME280;24833;49.324;8.694;2023-02-12T01:01:00;101876.22;;;6.46;74.11
38716;BME280;24833;49.324;8.694;2023-02-12T01:03:27;101882.50;;;6.45;74.28
38716;BME280;24833;49.324;8.694;2023-02-12T01:05:54;101878.28;;;6.43;74.33
38716;BME280;24833;49.324;8.694;2023-02-12T01:08:23;101878.38;;;6.41;74.25
38716;BME280;24833;49.324;8.694;2023-02-12T01:10:59;101882.97;;;6.39;74.12
38716;BME280;24833;49.324;8.694;2023-02-12T01:13:29;101876.09;;;6.37;74.30
38716;BME280;24833;49.324;8.694;2023-02-12T01:18:41;101876.31;;;6.34;74.43
38716;BME280;24833;49.324;8.694;2023-02-12T01:21:14;101873.91;;;6.31;74.18
38716;BME280;24833;49.324;8.694;2023-02-12T01:23:42;101869.56;;;6.30;74.04
38716;BME280;24833;49.324;8.694;2023-02-12T01:26:10;101878.47;;;6.28;74.48
38716;BME280;24833;49.324;8.694;2023-02-12T01:28:40;101877.53;;;6.30;74.19
38716;BME280;24833;49.324;8.694;2023-02-12T01:31:18;101867.84;;;6.28;73.79
38716;BME280;24833;49.324;8.694;2023-02-12T01:33:51;101867.00;;;6.28;74.50
38716;BME280;24833;49.324;8.694;2023-02-12T01:36:19;101873.16;;;6.28;74.50
38716;BME280;24833;49.324;8.694;2023-02-12T01:38:47;101871.38;;;6.29;74.28
38716;BME280;24833;49.324;8.694;2023-02-12T01:41:21;101864.34;;;6.28;74.64
38716;BME280;24833;49.324;8.694;2023-02-12T01:46:47;101873.91;;;6.31;74.59
38716;BME280;24833;49.324;8.694;2023-02-12T01:49:35;101872.94;;;6.32;73.94
38716;BME280;24833;49.324;8.694;2023-02-12T01:52:23;101863.28;;;6.31;74.11
38716;BME280;24833;49.324;8.694;2023-02-12T01:54:55;101864.97;;;6.32;74.39
38716;BME280;24833;49.324;8.694;2023-02-12T01:57:27;101858.72;;;6.33;74.19
38716;BME280;24833;49.324;8.694;2023-02-12T01:59:57;101858.72;;;6.33;74.18
38716;BME280;24833;49.324;8.694;2023-02-12T02:02:26;101856.16;;;6.31;74.46
38716;BME280;24833;49.324;8.694;2023-02-12T02:05:01;101855.34;;;6.31;74.00
38716;BME280;24833;49.324;8.694;2023-02-12T02:07:29;101852.69;;;6.31;74.56
38716;BME280;24833;49.324;8.694;2023-02-12T02:09:57;101852.81;;;6.29;74.40
38716;BME280;24833;49.324;8.694;2023-02-12T02:12:28;101849.28;;;6.28;74.03
38716;BME280;24833;49.324;8.694;2023-02-12T02:15:16;101852.88;;;6.27;74.30
38716;BME280;24833;49.324;8.694;2023-02-12T02:23:51;101850.25;;;6.27;74.33
38716;BME280;24833;49.324;8.694;2023-02-12T02:27:01;101851.94;;;6.28;74.01
38716;BME280;24833;49.324;8.694;2023-02-12T02:33:26;101857.22;;;6.28;73.78
38716;BME280;24833;49.324;8.694;2023-02-12T02:36:33;101853.66;;;6.30;74.19
38716;BME280;24833;49.324;8.694;2023-02-12T02:39:25;101852.81;;;6.29;74.01
38716;BME280;24833;49.324;8.694;2023-02-12T02:42:17;101857.97;;;6.31;74.07
38716;BME280;24833;49.324;8.694;2023-02-12T02:47:43;101858.19;;;6.27;74.17
38716;BME280;24833;49.324;8.694;2023-02-12T02:50:22;101850.25;;;6.27;74.46
38716;BME280;24833;49.324;8.694;2023-02-12T02:52:54;101855.53;;;6.27;74.37
38716;BME280;24833;49.324;8.694;2023-02-12T02:55:26;101849.53;;;6.25;74.26
38716;BME280;24833;49.324;8.694;2023-02-12T02:58:00;101846.03;;;6.25;74.44
38716;BME280;24833;49.324;8.694;2023-02-12T03:00:47;101848.69;;;6.25;74.33
38716;BME280;24833;49.324;8.694;2023-02-12T03:03:44;101855.78;;;6.24;74.24
38716;BME280;24833;49.324;8.694;2023-02-12T03:06:39;101850.59;;;6.23;73.90
38716;BME280;24833;49.324;8.694;2023-02-12T03:09:40;101855.16;;;6.21;73.96
38716;BME280;24833;49.324;8.694;2023-02-12T03:12:26;101856.00;;;6.21;74.23
38716;BME280;24833;49.324;8.694;2023-02-12T03:15:13;101845.41;;;6.21;74.28
38716;BME280;24833;49.324;8.694;2023-02-12T03:17:47;101850.59;;;6.23;74.64
38716;BME280;24833;49.324;8.694;2023-02-12T03:20:25;101849.75;;;6.22;74.48
38716;BME280;24833;49.324;8.694;2023-02-12T03:23:07;101859.41;;;6.23;74.48
38716;BME280;24833;49.324;8.694;2023-02-12T03:25:58;101854.94;;;6.24;74.12
38716;BME280;24833;49.324;8.694;2023-02-12T03:28:36;101861.22;;;6.23;74.35
38716;BME280;24833;49.324;8.694;2023-02-12T03:31:32;101857.94;;;6.19;74.66
38716;BME280;24833;49.324;8.694;2023-02-12T03:34:26;101849.38;;;6.16;74.08
38716;BME280;24833;49.324;8.694;2023-02-12T03:37:07;101853.09;;;6.13;74.21
38716;BME280;24833;49.324;8.694;2023-02-12T03:43:08;101851.75;;;6.08;73.90
38716;BME280;24833;49.324;8.694;2023-02-12T03:45:58;101850.16;;;6.05;75.08
38716;BME280;24833;49.324;8.694;2023-02-12T03:49:00;101849.44;;;6.03;74.44
38716;BME280;24833;49.324;8.694;2023-02-12T03:51:40;101849.53;;;6.01;74.98
38716;BME280;24833;49.324;8.694;2023-02-12T03:54:12;101848.69;;;6.01;75.15
38716;BME280;24833;49.324;8.694;2023-02-12T03:56:47;101854.97;;;6.00;75.35
38716;BME280;24833;49.324;8.694;2023-02-12T03:59:22;101850.63;;;5.99;74.63
38716;BME280;24833;49.324;8.694;2023-02-12T04:01:52;101852.44;;;5.98;74.72
38716;BME280;24833;49.324;8.694;2023-02-12T04:04:20;101862.91;;;6.00;75.03
38716;BME280;24833;49.324;8.694;2023-02-12T04:06:50;101869.91;;;6.01;75.11
38716;BME280;24833;49.324;8.694;2023-02-12T04:09:18;101859.31;;;6.01;75.01
38716;BME280;24833;49.324;8.694;2023-02-12T04:12:28;101859.31;;;6.01;74.49
38716;BME280;24833;49.324;8.694;2023-02-12T04:20:52;101860.91;;;6.04;74.58
38716;BME280;24833;49.324;8.694;2023-02-12T04:23:40;101872.34;;;6.04;74.63
38716;BME280;24833;49.324;8.694;2023-02-12T04:26:12;101865.97;;;6.07;74.77
38716;BME280;24833;49.324;8.694;2023-02-12T04:34:57;101865.25;;;6.05;74.35
38716;BME280;24833;49.324;8.694;2023-02-12T04:37:45;101865.34;;;6.03;74.59
38716;BME280;24833;49.324;8.694;2023-02-12T04:40:18;101877.66;;;6.04;74.75
38716;BME280;24833;49.324;8.694;2023-02-12T04:42:49;101875.00;;;6.04;74.83
38716;BME280;24833;49.324;8.694;2023-02-12T04:45:28;101880.31;;;6.04;74.16
38716;BME280;24833;49.324;8.694;2023-02-12T04:47:56;101873.06;;;6.06;75.12
38716;BME280;24833;49.324;8.694;2023-02-12T04:50:24;101874.88;;;6.06;75.00
38716;BME280;24833;49.324;8.694;2023-02-12T04:52:51;101875.59;;;6.08;74.98
38716;BME280;24833;49.324;8.694;2023-02-12T04:55:18;101868.50;;;6.08;74.70
38716;BME280;24833;49.324;8.694;2023-02-12T04:57:46;101876.44;;;6.08;74.85
38716;BME280;24833;49.324;8.694;2023-02-12T05:00:15;101868.41;;;6.10;75.23
38716;BME280;24833;49.324;8.694;2023-02-12T05:02:42;101871.78;;;6.12;75.38
38716;BME280;24833;49.324;8.694;2023-02-12T05:05:09;101866.47;;;6.12;75.07
38716;BME280;24833;49.324;8.694;2023-02-12T05:07:36;101864.66;;;6.12;75.19
38716;BME280;24833;49.324;8.694;2023-02-12T05:10:04;101863.69;;;6.13;75.33
38716;BME280;24833;49.324;8.694;2023-02-12T05:12:31;101862.84;;;6.13;74.90
38716;BME280;24833;49.324;8.694;2023-02-12T05:14:58;101859.25;;;6.14;75.26
38716;BME280;24833;49.324;8.694;2023-02-12T05:17:25;101853.09;;;6.13;74.98
38716;BME280;24833;49.324;8.694;2023-02-12T05:19:52;101858.41;;;6.13;74.97
38716;BME280;24833;49.324;8.694;2023-02-12T05:22:19;101858.41;;;6.13;75.16
38716;BME280;24833;49.324;8.694;2023-02-12T05:24:46;101860.91;;;6.15;74.95
38716;BME280;24833;49.324;8.694;2023-02-12T05:27:13;101859.25;;;6.14;75.20
38716;BME280;24833;49.324;8.694;2023-02-12T05:29:40;101861.88;;;6.14;75.03
38716;BME280;24833;49.324;8.694;2023-02-12T05:32:08;101856.72;;;6.12;74.97
38716;BME280;24833;49.324;8.694;2023-02-12T05:34:35;101858.41;;;6.13;74.93
38716;BME280;24833;49.324;8.694;2023-02-12T05:37:03;101854.06;;;6.12;74.99
38716;BME280;24833;49.324;8.694;2023-02-12T05:39:30;101849.72;;;6.11;75.13
38716;BME280;24833;49.324;8.694;2023-02-12T05:41:57;101859.47;;;6.11;75.18
38716;BME280;24833;49.324;8.694;2023-02-12T05:44:23;101855.13;;;6.10;75.07
38716;BME280;24833;49.324;8.694;2023-02-12T05:46:50;101860.53;;;6.08;75.07
38716;BME280;24833;49.324;8.694;2023-02-12T05:49:17;101864.16;;;6.07;74.79
38716;BME280;24833;49.324;8.694;2023-02-12T05:51:44;101866.94;;;6.06;74.94
38716;BME280;24833;49.324;8.694;2023-02-12T05:54:11;101868.84;;;6.04;75.10
38716;BME280;24833;49.324;8.694;2023-02-12T05:56:45;101871.63;;;6.02;74.73
38716;BME280;24833;49.324;8.694;2023-02-12T05:59:19;101879.78;;;5.99;74.45
38716;BME280;24833;49.324;8.694;2023-02-12T06:01:48;101877.13;;;5.99;74.75
38716;BME280;24833;49.324;8.694;2023-02-12T06:04:23;101882.56;;;5.97;75.00
38716;BME280;24833;49.324;8.694;2023-02-12T06:06:54;101876.41;;;5.97;75.05
38716;BME280;24833;49.324;8.694;2023-02-12T06:09:22;101878.22;;;5.96;75.10
38716;BME280;24833;49.324;8.694;2023-02-12T06:11:50;101880.88;;;5.96;75.26
38716;BME280;24833;49.324;8.694;2023-02-12T06:14:18;101884.38;;;5.97;75.07
38716;BME280;24833;49.324;8.694;2023-02-12T06:16:48;101878.31;;;5.95;74.80
38716;BME280;24833;49.324;8.694;2023-02-12T06:19:16;101885.34;;;5.96;75.20
38716;BME280;24833;49.324;8.694;2023-02-12T06:21:43;101883.63;;;5.95;74.94
38716;BME280;24833;49.324;8.694;2023-02-12T06:24:15;101888.91;;;5.95;75.03
38716;BME280;24833;49.324;8.694;2023-02-12T06:26:42;101897.75;;;5.95;75.03
38716;BME280;24833;49.324;8.694;2023-02-12T06:29:10;101892.44;;;5.95;75.02
38716;BME280;24833;49.324;8.694;2023-02-12T06:31:37;101890.63;;;5.96;75.01
38716;BME280;24833;49.324;8.694;2023-02-12T06:34:08;101889.69;;;5.97;75.30
38716;BME280;24833;49.324;8.694;2023-02-12T06:36:41;101896.66;;;5.98;75.53
38716;BME280;24833;49.324;8.694;2023-02-12T06:39:09;101893.06;;;5.99;75.25
38716;BME280;24833;49.324;8.694;2023-02-12T06:41:36;101900.03;;;6.00;75.68
38716;BME280;24833;49.324;8.694;2023-02-12T06:44:04;101904.38;;;6.01;75.63
38716;BME280;24833;49.324;8.694;2023-02-12T06:46:32;101898.16;;;6.02;75.43
38716;BME280;24833;49.324;8.694;2023-02-12T06:49:00;101894.53;;;6.03;75.47
38716;BME280;24833;49.324;8.694;2023-02-12T06:51:28;101905.13;;;6.03;75.52
38716;BME280;24833;49.324;8.694;2023-02-12T06:53:55;101908.50;;;6.05;75.56
38716;BME280;24833;49.324;8.694;2023-02-12T06:56:23;101908.50;;;6.05;75.67
38716;BME280;24833;49.324;8.694;2023-02-12T06:58:57;101904.91;;;6.06;75.77
38716;BME280;24833;49.324;8.694;2023-02-12T07:01:27;101898.63;;;6.07;76.43
38716;BME280;24833;49.324;8.694;2023-02-12T07:03:57;101901.28;;;6.07;75.93
38716;BME280;24833;49.324;8.694;2023-02-12T07:06:26;101902.13;;;6.08;75.75
38716;BME280;24833;49.324;8.694;2023-02-12T07:08:55;101902.13;;;6.08;76.02
38716;BME280;24833;49.324;8.694;2023-02-12T07:11:29;101903.84;;;6.09;76.16
38716;BME280;24833;49.324;8.694;2023-02-12T07:13:56;101908.19;;;6.10;76.25
38716;BME280;24833;49.324;8.694;2023-02-12T07:16:24;101910.72;;;6.11;76.55
38716;BME280;24833;49.324;8.694;2023-02-12T07:18:51;101903.47;;;6.13;76.82
38716;BME280;24833;49.324;8.694;2023-02-12T07:21:19;101907.94;;;6.13;76.60
38716;BME280;24833;49.324;8.694;2023-02-12T07:23:48;101914.94;;;6.14;76.12
38716;BME280;24833;49.324;8.694;2023-02-12T07:26:19;101913.13;;;6.14;76.81
38716;BME280;24833;49.324;8.694;2023-02-12T07:28:47;101925.44;;;6.15;76.53
38716;BME280;24833;49.324;8.694;2023-02-12T07:31:21;101913.13;;;6.14;76.25
38716;BME280;24833;49.324;8.694;2023-02-12T07:33:53;101913.97;;;6.15;76.71
38716;BME280;24833;49.324;8.694;2023-02-12T07:36:22;101917.50;;;6.15;76.50
38716;BME280;24833;49.324;8.694;2023-02-12T07:38:49;101921.00;;;6.16;76.74
38716;BME280;24833;49.324;8.694;2023-02-12T07:41:29;101907.81;;;6.14;76.96
38716;BME280;24833;49.324;8.694;2023-02-12T07:44:00;101915.69;;;6.16;76.68
38716;BME280;24833;49.324;8.694;2023-02-12T07:46:52;101918.22;;;6.17;76.57
38716;BME280;24833;49.324;8.694;2023-02-12T07:49:20;101919.06;;;6.18;76.77
38716;BME280;24833;49.324;8.694;2023-02-12T07:51:48;101920.75;;;6.19;76.69
38716;BME280;24833;49.324;8.694;2023-02-12T07:54:16;101920.63;;;6.20;76.54
38716;BME280;24833;49.324;8.694;2023-02-12T07:56:44;101926.69;;;6.22;76.76
38716;BME280;24833;49.324;8.694;2023-02-12T07:59:16;101928.38;;;6.23;77.37
38716;BME280;24833;49.324;8.694;2023-02-12T08:01:49;101923.78;;;6.25;77.24
38716;BME280;24833;49.324;8.694;2023-02-12T08:04:21;101928.97;;;6.27;76.97
38716;BME280;24833;49.324;8.694;2023-02-12T08:06:52;101923.56;;;6.28;77.05
38716;BME280;24833;49.324;8.694;2023-02-12T08:09:27;101926.00;;;6.32;76.98
38716;BME280;24833;49.324;8.694;2023-02-12T08:11:56;101931.06;;;6.35;77.48
38716;BME280;24833;49.324;8.694;2023-02-12T08:14:23;101935.44;;;6.36;77.33
38716;BME280;24833;49.324;8.694;2023-02-12T08:16:52;101929.03;;;6.38;77.65
38716;BME280;24833;49.324;8.694;2023-02-12T08:19:20;101934.22;;;6.40;77.87
38716;BME280;24833;49.324;8.694;2023-02-12T08:21:54;101943.78;;;6.42;77.26
38716;BME280;24833;49.324;8.694;2023-02-12T08:24:23;101943.53;;;6.45;77.25
38716;BME280;24833;49.324;8.694;2023-02-12T08:26:51;101939.06;;;6.46;77.41
38716;BME280;24833;49.324;8.694;2023-02-12T08:29:22;101933.75;;;6.46;77.57
38716;BME280;24833;49.324;8.694;2023-02-12T08:31:55;101947.66;;;6.49;77.20
38716;BME280;24833;49.324;8.694;2023-02-12T08:34:26;101942.25;;;6.51;77.73
38716;BME280;24833;49.324;8.694;2023-02-12T08:36:54;101942.25;;;6.51;77.38
38716;BME280;24833;49.324;8.694;2023-02-12T08:39:24;101952.59;;;6.54;77.58
38716;BME280;24833;49.324;8.694;2023-02-12T08:41:56;101953.44;;;6.54;77.31
38716;BME280;24833;49.324;8.694;2023-02-12T08:44:24;101947.09;;;6.57;77.27
38716;BME280;24833;49.324;8.694;2023-02-12T08:46:52;101948.66;;;6.60;77.68
38716;BME280;24833;49.324;8.694;2023-02-12T08:49:25;101943.22;;;6.61;77.36
38716;BME280;24833;49.324;8.694;2023-02-12T08:51:54;101953.75;;;6.63;77.54
38716;BME280;24833;49.324;8.694;2023-02-12T08:54:27;101953.63;;;6.64;77.57
38716;BME280;24833;49.324;8.694;2023-02-12T08:57:00;101960.50;;;6.67;78.14
38716;BME280;24833;49.324;8.694;2023-02-12T08:59:28;101959.53;;;6.68;78.13
38716;BME280;24833;49.324;8.694;2023-02-12T09:01:55;101962.19;;;6.68;77.95
38716;BME280;24833;49.324;8.694;2023-02-12T09:04:25;101962.09;;;6.69;78.17
38716;BME280;24833;49.324;8.694;2023-02-12T09:06:53;101962.94;;;6.70;77.48
38716;BME280;24833;49.324;8.694;2023-02-12T09:09:20;101966.31;;;6.72;77.94
38716;BME280;24833;49.324;8.694;2023-02-12T09:11:48;101959.06;;;6.74;78.28
38716;BME280;24833;49.324;8.694;2023-02-12T09:14:17;101965.22;;;6.74;78.23
38716;BME280;24833;49.324;8.694;2023-02-12T09:16:44;101964.16;;;6.77;78.01
38716;BME280;24833;49.324;8.694;2023-02-12T09:19:13;101969.34;;;6.78;77.69
38716;BME280;24833;49.324;8.694;2023-02-12T09:21:40;101970.06;;;6.80;77.94
38716;BME280;24833;49.324;8.694;2023-02-12T09:24:08;101969.94;;;6.82;78.07
38716;BME280;24833;49.324;8.694;2023-02-12T09:26:35;101976.84;;;6.85;78.02
38716;BME280;24833;49.324;8.694;2023-02-12T09:29:03;101974.91;;;6.87;78.15
38716;BME280;24833;49.324;8.694;2023-02-12T09:31:31;101968.53;;;6.89;77.85
38716;BME280;24833;49.324;8.694;2023-02-12T09:34:05;101974.56;;;6.91;78.28
38716;BME280;24833;49.324;8.694;2023-02-12T09:36:32;101977.94;;;6.93;77.97
38716;BME280;24833;49.324;8.694;2023-02-12T09:39:01;101975.09;;;6.96;77.94
38716;BME280;24833;49.324;8.694;2023-02-12T09:44:47;101973.75;;;7.02;77.97
38716;BME280;24833;49.324;8.694;2023-02-12T09:52:49;101968.81;;;7.08;78.45
38716;BME280;24833;49.324;8.694;2023-02-12T09:55:17;101967.75;;;7.11;78.18
38716;BME280;24833;49.324;8.694;2023-02-12T09:57:45;101971.13;;;7.13;78.10
38716;BME280;24833;49.324;8.694;2023-02-12T10:00:24;101974.41;;;7.17;78.23
38716;BME280;24833;49.324;8.694;2023-02-12T10:03:04;101973.06;;;7.22;78.70
38716;BME280;24833;49.324;8.694;2023-02-12T10:05:43;101972.09;;;7.23;78.14
38716;BME280;24833;49.324;8.694;2023-02-12T10:11:41;101979.47;;;7.31;78.11
38716;BME280;24833;49.324;8.694;2023-02-12T10:17:16;101979.84;;;7.37;78.30
38716;BME280;24833;49.324;8.694;2023-02-12T10:22:55;101977.31;;;7.47;78.34
38716;BME280;24833;49.324;8.694;2023-02-12T10:26:41;101978.63;;;7.53;78.46
38716;BME280;24833;49.324;8.694;2023-02-12T10:28:48;101971.16;;;7.58;78.67
38716;BME280;24833;49.324;8.694;2023-02-12T10:31:29;101969.81;;;7.63;78.67
38716;BME280;24833;49.324;8.694;2023-02-12T10:33:58;101968.50;;;7.69;79.10
38716;BME280;24833;49.324;8.694;2023-02-12T10:42:43;101951.03;;;7.87;78.95
38716;BME280;24833;49.324;8.694;2023-02-12T10:45:18;101956.00;;;7.92;79.22
38716;BME280;24833;49.324;8.694;2023-02-12T10:47:48;101945.84;;;7.97;79.03
38716;BME280;24833;49.324;8.694;2023-02-12T10:50:36;101942.56;;;8.05;79.14
38716;BME280;24833;49.324;8.694;2023-02-12T10:53:05;101939.53;;;8.09;79.65
38716;BME280;24833;49.324;8.694;2023-02-12T10:55:38;101937.31;;;8.14;79.32
38716;BME280;24833;49.324;8.694;2023-02-12T10:58:22;101936.81;;;8.20;79.72
38716;BME280;24833;49.324;8.694;2023-02-12T11:01:00;101938.00;;;8.28;79.42
38716;BME280;24833;49.324;8.694;2023-02-12T11:03:31;101933.97;;;8.33;79.49
38716;BME280;24833;49.324;8.694;2023-02-12T11:06:26;101938.00;;;8.39;79.46
38716;BME280;24833;49.324;8.694;2023-02-12T11:08:57;101934.09;;;8.43;79.65
38716;BME280;24833;49.324;8.694;2023-02-12T11:11:29;101931.03;;;8.48;79.35
38716;BME280;24833;49.324;8.694;2023-02-12T11:14:05;101936.84;;;8.53;79.73
38716;BME280;24833;49.324;8.694;2023-02-12T11:16:49;101938.00;;;8.60;79.71
38716;BME280;24833;49.324;8.694;2023-02-12T11:19:30;101930.47;;;8.65;79.71
38716;BME280;24833;49.324;8.694;2023-02-12T11:22:10;101922.97;;;8.70;79.90
38716;BME280;24833;49.324;8.694;2023-02-12T11:24:40;101928.84;;;8.73;80.08
38716;BME280;24833;49.324;8.694;2023-02-12T11:27:25;101936.47;;;8.78;79.96
38716;BME280;24833;49.324;8.694;2023-02-12T11:32:36;101923.59;;;8.83;79.50
38716;BME280;24833;49.324;8.694;2023-02-12T11:35:17;101921.50;;;8.87;79.83
38716;BME280;24833;49.324;8.694;2023-02-12T11:37:56;101918.59;;;8.90;79.67
38716;BME280;24833;49.324;8.694;2023-02-12T11:40:30;101916.38;;;8.95;80.16
38716;BME280;24833;49.324;8.694;2023-02-12T11:43:06;101916.97;;;8.98;80.29
38716;BME280;24833;49.324;8.694;2023-02-12T11:45:50;101912.94;;;9.04;79.93
38716;BME280;24833;49.324;8.694;2023-02-12T11:48:37;101909.00;;;9.08;80.22
38716;BME280;24833;49.324;8.694;2023-02-12T11:51:08;101907.63;;;9.14;80.05
38716;BME280;24833;49.324;8.694;2023-02-12T11:53:48;101906.25;;;9.19;80.10
38716;BME280;24833;49.324;8.694;2023-02-12T11:56:17;101900.41;;;9.25;80.10
38716;BME280;24833;49.324;8.694;2023-02-12T11:58:50;101897.34;;;9.30;80.40
38716;BME280;24833;49.324;8.694;2023-02-12T12:01:28;101894.13;;;9.36;80.13
38716;BME280;24833;49.324;8.694;2023-02-12T12:04:11;101888.22;;;9.42;80.03
38716;BME280;24833;49.324;8.694;2023-02-12T12:06:52;101886.00;;;9.47;80.21
38716;BME280;24833;49.324;8.694;2023-02-12T12:09:34;101876.47;;;9.54;80.45
38716;BME280;24833;49.324;8.694;2023-02-12T12:12:46;101874.84;;;9.63;80.89
38716;BME280;24833;49.324;8.694;2023-02-12T12:27:03;101863.66;;;9.98;80.79
38716;BME280;24833;49.324;8.694;2023-02-12T12:29:51;101866.75;;;10.03;80.63
38716;BME280;24833;49.324;8.694;2023-02-12T12:32:22;101869.28;;;10.05;79.85
38716;BME280;24833;49.324;8.694;2023-02-12T12:34:50;101866.47;;;10.06;80.16
38716;BME280;24833;49.324;8.694;2023-02-12T12:37:39;101856.47;;;10.08;79.88
38716;BME280;24833;49.324;8.694;2023-02-12T12:43:07;101857.19;;;10.10;80.39
38716;BME280;24833;49.324;8.694;2023-02-12T12:48:47;101854.97;;;10.25;81.28
38716;BME280;24833;49.324;8.694;2023-02-12T12:52:00;101845.81;;;10.38;81.19
38716;BME280;24833;49.324;8.694;2023-02-12T12:55:15;101838.91;;;10.54;81.64
38716;BME280;24833;49.324;8.694;2023-02-12T12:58:04;101840.25;;;10.68;81.87
38716;BME280;24833;49.324;8.694;2023-02-12T13:12:23;101815.91;;;11.08;80.84
38716;BME280;24833;49.324;8.694;2023-02-12T13:18:06;101816.31;;;11.13;80.75
38716;BME280;24833;49.324;8.694;2023-02-12T13:26:58;101817.69;;;11.45;81.91
38716;BME280;24833;49.324;8.694;2023-02-12T13:29:48;101809.44;;;11.56;81.24
38716;BME280;24833;49.324;8.694;2023-02-12T13:32:39;101815.25;;;11.69;82.01
38716;BME280;24833;49.324;8.694;2023-02-12T13:35:17;101807.34;;;11.78;82.53
38716;BME280;24833;49.324;8.694;2023-02-12T13:37:50;101801.94;;;11.87;82.21
38716;BME280;24833;49.324;8.694;2023-02-12T13:40:25;101807.22;;;11.97;82.01
38716;BME280;24833;49.324;8.694;2023-02-12T13:43:13;101805.44;;;12.06;82.11
38716;BME280;24833;49.324;8.694;2023-02-12T13:46:21;101796.25;;;12.08;82.05
38716;BME280;24833;49.324;8.694;2023-02-12T13:49:00;101797.78;;;12.11;81.83
38716;BME280;24833;49.324;8.694;2023-02-12T13:52:07;101806.72;;;12.19;83.20
38716;BME280;24833;49.324;8.694;2023-02-12T14:01:06;101805.16;;;12.35;82.02
38716;BME280;24833;49.324;8.694;2023-02-12T14:03:35;101793.13;;;12.39;81.79
38716;BME280;24833;49.324;8.694;2023-02-12T14:06:17;101796.69;;;12.47;82.96
38716;BME280;24833;49.324;8.694;2023-02-12T14:09:06;101793.03;;;12.48;81.75
38716;BME280;24833;49.324;8.694;2023-02-12T14:11:47;101786.19;;;12.54;83.09
38716;BME280;24833;49.324;8.694;2023-02-12T14:14:36;101787.41;;;12.60;83.11
38716;BME280;24833;49.324;8.694;2023-02-12T14:20:27;101782.25;;;12.66;83.04
38716;BME280;24833;49.324;8.694;2023-02-12T14:23:23;101771.53;;;12.66;82.76
38716;BME280;24833;49.324;8.694;2023-02-12T14:28:59;101774.88;;;12.68;83.06
38716;BME280;24833;49.324;8.694;2023-02-12T14:31:37;101784.47;;;12.71;82.50
38716;BME280;24833;49.324;8.694;2023-02-12T14:39:04;101769.53;;;12.68;81.99
38716;BME280;24833;49.324;8.694;2023-02-12T14:41:35;101768.22;;;12.72;81.94
38716;BME280;24833;49.324;8.694;2023-02-12T14:47:02;101775.09;;;12.75;81.83
38716;BME280;24833;49.324;8.694;2023-02-12T14:49:45;101768.88;;;12.74;81.99
38716;BME280;24833;49.324;8.694;2023-02-12T14:55:05;101764.91;;;12.78;82.59
38716;BME280;24833;49.324;8.694;2023-02-12T14:57:39;101761.84;;;12.73;81.34
38716;BME280;24833;49.324;8.694;2023-02-12T15:03:00;101761.50;;;12.76;81.35
38716;BME280;24833;49.324;8.694;2023-02-12T15:05:35;101760.16;;;12.72;79.85
38716;BME280;24833;49.324;8.694;2023-02-12T15:08:14;101755.13;;;12.69;80.84
38716;BME280;24833;49.324;8.694;2023-02-12T15:10:52;101754.06;;;12.62;79.49
38716;BME280;24833;49.324;8.694;2023-02-12T15:13:26;101744.31;;;12.53;79.65
38716;BME280;24833;49.324;8.694;2023-02-12T15:16:16;101744.63;;;12.50;79.92
38716;BME280;24833;49.324;8.694;2023-02-12T15:18:57;101750.78;;;12.42;79.58
38716;BME280;24833;49.324;8.694;2023-02-12T15:21:28;101744.38;;;12.35;78.91
38716;BME280;24833;49.324;8.694;2023-02-12T15:26:46;101746.84;;;12.28;79.82
38716;BME280;24833;49.324;8.694;2023-02-12T15:31:55;101746.47;;;12.23;79.20
38716;BME280;24833;49.324;8.694;2023-02-12T15:34:27;101750.31;;;12.21;79.16
38716;BME280;24833;49.324;8.694;2023-02-12T15:36:59;101751.16;;;12.21;79.65
38716;BME280;24833;49.324;8.694;2023-02-12T15:39:42;101743.13;;;12.21;80.26
38716;BME280;24833;49.324;8.694;2023-02-12T15:42:35;101743.13;;;12.21;80.44
38716;BME280;24833;49.324;8.694;2023-02-12T15:47:42;101745.41;;;12.16;79.20
38716;BME280;24833;49.324;8.694;2023-02-12T15:50:15;101743.22;;;12.12;79.23